sensor_id;sensor_type;location;lat;lon;timestamp;P1;durP1;ratioP1;P2;durP2;ratioP2
63032;SDS011;49121;38.932;-9.018;2023-03-02T00:00:06;20.20;;;3.70;;
63032;SDS011;49121;38.932;-9.018;2023-03-02T00:02:15;8.15;;;3.85;;
63032;SDS011;49121;38.932;-9.018;2023-03-02T00:08:43;8.37;;;3.93;;
63032;SDS011;49121;38.932;-9.018;2023-03-02T00:10:44;5.90;;;3.28;;
63032;SDS011;49121;38.932;-9.018;2023-03-02T00:12:45;12.52;;;4.18;;
63032;SDS011;49121;38.932;-9.018;2023-03-02T00:14:46;8.73;;;3.85;;
63032;SDS011;49121;38.932;-9.018;2023-03-02T00:16:47;8.52;;;3.22;;
63032;SDS011;49121;38.932;-9.018;2023-03-02T00:18:47;12.88;;;3.97;;
63032;SDS011;49121;38.932;-9.018;2023-03-02T00:20:48;9.70;;;4.30;;
63032;SDS011;49121;38.932;-9.018;2023-03-02T00:22:48;9.45;;;3.22;;
63032;SDS011;49121;38.932;-9.018;2023-03-02T00:24:49;7.65;;;3.80;;
63032;SDS011;49121;38.932;-9.018;2023-03-02T00:26:50;8.80;;;4.00;;
63032;SDS011;49121;38.932;-9.018;2023-03-02T00:28:50;16.90;;;5.50;;
63032;SDS011;49121;38.932;-9.018;2023-03-02T00:30:51;7.93;;;4.03;;
63032;SDS011;49121;38.932;-9.018;2023-03-02T00:32:52;8.07;;;3.90;;
63032;SDS011;49121;38.932;-9.018;2023-03-02T00:34:52;6.05;;;3.55;;
63032;SDS011;49121;38.932;-9.018;2023-03-02T00:36:53;8.48;;;3.72;;
63032;SDS011;49121;38.932;-9.018;2023-03-02T00:38:53;5.40;;;3.17;;
63032;SDS011;49121;38.932;-9.018;2023-03-02T00:40:56;6.43;;;3.47;;
63032;SDS011;49121;38.932;-9.018;2023-03-02T00:43:04;9.05;;;3.92;;
63032;SDS011;49121;38.932;-9.018;2023-03-02T00:45:05;7.97;;;3.55;;
63032;SDS011;49121;38.932;-9.018;2023-03-02T00:47:06;9.77;;;3.38;;
63032;SDS011;49121;38.932;-9.018;2023-03-02T00:49:07;5.22;;;3.22;;
63032;SDS011;49121;38.932;-9.018;2023-03-02T00:51:07;9.13;;;3.28;;
63032;SDS011;49121;38.932;-9.018;2023-03-02T00:53:09;10.82;;;3.50;;
63032;SDS011;49121;38.932;-9.018;2023-03-02T00:55:10;5.40;;;3.20;;
63032;SDS011;49121;38.932;-9.018;2023-03-02T00:57:29;7.80;;;3.20;;
63032;SDS011;49121;38.932;-9.018;2023-03-02T00:59:35;10.60;;;3.08;;
63032;SDS011;49121;38.932;-9.018;2023-03-02T01:02:03;5.30;;;2.75;;
63032;SDS011;49121;38.932;-9.018;2023-03-02T01:04:05;7.53;;;3.10;;
63032;SDS011;49121;38.932;-9.018;2023-03-02T01:06:12;9.60;;;2.92;;
63032;SDS011;49121;38.932;-9.018;2023-03-02T01:08:14;6.05;;;3.08;;
63032;SDS011;49121;38.932;-9.018;2023-03-02T01:10:15;7.72;;;2.67;;
63032;SDS011;49121;38.932;-9.018;2023-03-02T01:12:16;4.88;;;3.03;;
63032;SDS011;49121;38.932;-9.018;2023-03-02T01:14:17;7.05;;;3.30;;
63032;SDS011;49121;38.932;-9.018;2023-03-02T01:16:18;5.70;;;3.00;;
63032;SDS011;49121;38.932;-9.018;2023-03-02T01:18:18;8.48;;;3.00;;
63032;SDS011;49121;38.932;-9.018;2023-03-02T01:20:19;5.25;;;3.15;;
63032;SDS011;49121;38.932;-9.018;2023-03-02T01:22:20;6.43;;;3.03;;
63032;SDS011;49121;38.932;-9.018;2023-03-02T01:24:21;6.18;;;3.50;;
63032;SDS011;49121;38.932;-9.018;2023-03-02T01:26:22;7.65;;;3.60;;
63032;SDS011;49121;38.932;-9.018;2023-03-02T01:28:23;9.18;;;3.67;;
63032;SDS011;49121;38.932;-9.018;2023-03-02T01:30:23;8.90;;;3.53;;
63032;SDS011;49121;38.932;-9.018;2023-03-02T01:32:24;7.00;;;3.17;;
63032;SDS011;49121;38.932;-9.018;2023-03-02T01:34:25;8.40;;;4.53;;
63032;SDS011;49121;38.932;-9.018;2023-03-02T01:36:26;7.85;;;3.42;;
63032;SDS011;49121;38.932;-9.018;2023-03-02T01:38:27;8.15;;;3.58;;
63032;SDS011;49121;38.932;-9.018;2023-03-02T01:40:28;6.45;;;4.03;;
63032;SDS011;49121;38.932;-9.018;2023-03-02T01:42:32;5.97;;;3.40;;
63032;SDS011;49121;38.932;-9.018;2023-03-02T01:44:35;9.70;;;3.78;;
63032;SDS011;49121;38.932;-9.018;2023-03-02T01:46:39;7.40;;;3.10;;
63032;SDS011;49121;38.932;-9.018;2023-03-02T01:48:47;10.70;;;3.47;;
63032;SDS011;49121;38.932;-9.018;2023-03-02T01:53:53;5.70;;;3.20;;
63032;SDS011;49121;38.932;-9.018;2023-03-02T01:55:58;6.35;;;3.42;;
63032;SDS011;49121;38.932;-9.018;2023-03-02T01:57:59;8.13;;;2.83;;
63032;SDS011;49121;38.932;-9.018;2023-03-02T02:00:04;8.80;;;3.17;;
63032;SDS011;49121;38.932;-9.018;2023-03-02T02:02:12;11.60;;;3.35;;
63032;SDS011;49121;38.932;-9.018;2023-03-02T02:04:12;6.03;;;2.70;;
63032;SDS011;49121;38.932;-9.018;2023-03-02T02:08:23;5.90;;;2.78;;
63032;SDS011;49121;38.932;-9.018;2023-03-02T02:12:27;6.18;;;3.20;;
63032;SDS011;49121;38.932;-9.018;2023-03-02T02:19:54;8.10;;;3.75;;
63032;SDS011;49121;38.932;-9.018;2023-03-02T02:22:01;9.48;;;3.35;;
63032;SDS011;49121;38.932;-9.018;2023-03-02T02:30:35;3.95;;;2.80;;
63032;SDS011;49121;38.932;-9.018;2023-03-02T02:32:38;7.68;;;3.10;;
63032;SDS011;49121;38.932;-9.018;2023-03-02T02:37:30;5.13;;;3.13;;
63032;SDS011;49121;38.932;-9.018;2023-03-02T02:39:35;6.85;;;2.92;;
63032;SDS011;49121;38.932;-9.018;2023-03-02T02:41:40;7.10;;;3.72;;
63032;SDS011;49121;38.932;-9.018;2023-03-02T02:43:43;7.13;;;3.15;;
63032;SDS011;49121;38.932;-9.018;2023-03-02T02:45:44;5.45;;;3.03;;
63032;SDS011;49121;38.932;-9.018;2023-03-02T02:47:47;6.10;;;3.28;;
63032;SDS011;49121;38.932;-9.018;2023-03-02T02:49:49;9.07;;;3.15;;
63032;SDS011;49121;38.932;-9.018;2023-03-02T02:51:53;8.25;;;3.78;;
63032;SDS011;49121;38.932;-9.018;2023-03-02T02:56:03;8.02;;;3.47;;
63032;SDS011;49121;38.932;-9.018;2023-03-02T03:00:39;8.48;;;3.83;;
63032;SDS011;49121;38.932;-9.018;2023-03-02T03:02:42;14.43;;;4.03;;
63032;SDS011;49121;38.932;-9.018;2023-03-02T03:04:45;8.90;;;3.97;;
63032;SDS011;49121;38.932;-9.018;2023-03-02T03:06:53;12.13;;;3.72;;
63032;SDS011;49121;38.932;-9.018;2023-03-02T03:08:55;12.18;;;4.07;;
63032;SDS011;49121;38.932;-9.018;2023-03-02T03:11:13;11.88;;;3.72;;
63032;SDS011;49121;38.932;-9.018;2023-03-02T03:13:15;9.27;;;3.45;;
63032;SDS011;49121;38.932;-9.018;2023-03-02T03:15:16;7.88;;;3.10;;
63032;SDS011;49121;38.932;-9.018;2023-03-02T03:17:17;9.25;;;3.60;;
63032;SDS011;49121;38.932;-9.018;2023-03-02T03:19:26;11.82;;;4.13;;
63032;SDS011;49121;38.932;-9.018;2023-03-02T03:21:30;9.18;;;3.78;;
63032;SDS011;49121;38.932;-9.018;2023-03-02T03:23:31;6.35;;;3.10;;
63032;SDS011;49121;38.932;-9.018;2023-03-02T03:25:31;5.57;;;3.05;;
63032;SDS011;49121;38.932;-9.018;2023-03-02T03:27:34;8.85;;;3.47;;
63032;SDS011;49121;38.932;-9.018;2023-03-02T03:29:37;15.50;;;3.72;;
63032;SDS011;49121;38.932;-9.018;2023-03-02T03:31:41;8.07;;;3.22;;
63032;SDS011;49121;38.932;-9.018;2023-03-02T03:33:42;8.18;;;3.65;;
63032;SDS011;49121;38.932;-9.018;2023-03-02T03:35:43;6.57;;;3.20;;
63032;SDS011;49121;38.932;-9.018;2023-03-02T03:37:44;5.53;;;2.92;;
63032;SDS011;49121;38.932;-9.018;2023-03-02T03:39:45;9.50;;;3.38;;
63032;SDS011;49121;38.932;-9.018;2023-03-02T03:41:46;12.30;;;2.72;;
63032;SDS011;49121;38.932;-9.018;2023-03-02T03:43:47;11.13;;;3.70;;
63032;SDS011;49121;38.932;-9.018;2023-03-02T03:45:47;4.47;;;2.45;;
63032;SDS011;49121;38.932;-9.018;2023-03-02T03:47:52;7.38;;;3.15;;
63032;SDS011;49121;38.932;-9.018;2023-03-02T03:49:53;7.75;;;2.67;;
63032;SDS011;49121;38.932;-9.018;2023-03-02T03:51:54;7.70;;;2.65;;
63032;SDS011;49121;38.932;-9.018;2023-03-02T03:53:55;6.28;;;3.00;;
63032;SDS011;49121;38.932;-9.018;2023-03-02T03:56:02;4.68;;;2.75;;
63032;SDS011;49121;38.932;-9.018;2023-03-02T03:58:03;6.53;;;3.30;;
63032;SDS011;49121;38.932;-9.018;2023-03-02T04:00:05;8.60;;;3.80;;
63032;SDS011;49121;38.932;-9.018;2023-03-02T04:02:14;8.68;;;3.25;;
63032;SDS011;49121;38.932;-9.018;2023-03-02T04:04:23;10.43;;;3.25;;
63032;SDS011;49121;38.932;-9.018;2023-03-02T04:06:26;6.53;;;3.47;;
63032;SDS011;49121;38.932;-9.018;2023-03-02T04:08:26;4.28;;;2.78;;
63032;SDS011;49121;38.932;-9.018;2023-03-02T04:10:27;7.90;;;2.95;;
63032;SDS011;49121;38.932;-9.018;2023-03-02T04:12:29;8.35;;;2.63;;
63032;SDS011;49121;38.932;-9.018;2023-03-02T04:14:30;7.70;;;2.78;;
63032;SDS011;49121;38.932;-9.018;2023-03-02T04:16:31;3.95;;;2.67;;
63032;SDS011;49121;38.932;-9.018;2023-03-02T04:18:34;6.72;;;3.10;;
63032;SDS011;49121;38.932;-9.018;2023-03-02T04:20:34;5.70;;;2.70;;
63032;SDS011;49121;38.932;-9.018;2023-03-02T04:22:35;3.58;;;2.78;;
63032;SDS011;49121;38.932;-9.018;2023-03-02T04:24:39;5.90;;;2.88;;
63032;SDS011;49121;38.932;-9.018;2023-03-02T04:26:41;8.25;;;3.10;;
63032;SDS011;49121;38.932;-9.018;2023-03-02T04:28:42;7.80;;;3.17;;
63032;SDS011;49121;38.932;-9.018;2023-03-02T04:30:43;5.38;;;2.85;;
63032;SDS011;49121;38.932;-9.018;2023-03-02T04:32:44;4.88;;;2.67;;
63032;SDS011;49121;38.932;-9.018;2023-03-02T04:34:45;7.22;;;3.28;;
63032;SDS011;49121;38.932;-9.018;2023-03-02T04:36:45;6.38;;;3.42;;
63032;SDS011;49121;38.932;-9.018;2023-03-02T04:38:48;6.53;;;2.50;;
63032;SDS011;49121;38.932;-9.018;2023-03-02T04:40:53;7.72;;;3.22;;
63032;SDS011;49121;38.932;-9.018;2023-03-02T04:42:54;6.40;;;3.20;;
63032;SDS011;49121;38.932;-9.018;2023-03-02T04:44:55;4.18;;;2.67;;
63032;SDS011;49121;38.932;-9.018;2023-03-02T04:46:56;5.47;;;3.00;;
63032;SDS011;49121;38.932;-9.018;2023-03-02T04:48:57;6.72;;;3.25;;
63032;SDS011;49121;38.932;-9.018;2023-03-02T04:50:58;5.28;;;2.35;;
63032;SDS011;49121;38.932;-9.018;2023-03-02T04:52:58;11.23;;;2.90;;
63032;SDS011;49121;38.932;-9.018;2023-03-02T04:54:59;6.20;;;2.83;;
63032;SDS011;49121;38.932;-9.018;2023-03-02T04:56:59;4.68;;;3.00;;
63032;SDS011;49121;38.932;-9.018;2023-03-02T04:59:00;5.57;;;2.65;;
63032;SDS011;49121;38.932;-9.018;2023-03-02T05:01:01;3.30;;;2.67;;
63032;SDS011;49121;38.932;-9.018;2023-03-02T05:03:02;5.53;;;2.97;;
63032;SDS011;49121;38.932;-9.018;2023-03-02T05:05:04;7.20;;;3.03;;
63032;SDS011;49121;38.932;-9.018;2023-03-02T05:07:05;6.80;;;3.00;;
63032;SDS011;49121;38.932;-9.018;2023-03-02T05:09:06;8.70;;;3.20;;
63032;SDS011;49121;38.932;-9.018;2023-03-02T05:11:26;7.28;;;2.88;;
63032;SDS011;49121;38.932;-9.018;2023-03-02T05:13:27;4.18;;;2.80;;
63032;SDS011;49121;38.932;-9.018;2023-03-02T05:15:30;5.78;;;2.70;;
63032;SDS011;49121;38.932;-9.018;2023-03-02T05:17:36;8.00;;;3.10;;
63032;SDS011;49121;38.932;-9.018;2023-03-02T05:19:36;7.07;;;3.50;;
63032;SDS011;49121;38.932;-9.018;2023-03-02T05:21:37;4.53;;;2.75;;
63032;SDS011;49121;38.932;-9.018;2023-03-02T05:23:39;4.93;;;2.40;;
63032;SDS011;49121;38.932;-9.018;2023-03-02T05:25:40;7.63;;;2.75;;
63032;SDS011;49121;38.932;-9.018;2023-03-02T05:27:41;7.13;;;2.90;;
63032;SDS011;49121;38.932;-9.018;2023-03-02T05:29:41;5.88;;;2.42;;
63032;SDS011;49121;38.932;-9.018;2023-03-02T05:31:43;11.90;;;3.53;;
63032;SDS011;49121;38.932;-9.018;2023-03-02T05:33:44;6.50;;;2.58;;
63032;SDS011;49121;38.932;-9.018;2023-03-02T05:37:46;4.07;;;2.67;;
63032;SDS011;49121;38.932;-9.018;2023-03-02T05:39:48;6.53;;;2.58;;
63032;SDS011;49121;38.932;-9.018;2023-03-02T05:41:48;7.60;;;3.10;;
63032;SDS011;49121;38.932;-9.018;2023-03-02T05:43:49;11.50;;;3.45;;
63032;SDS011;49121;38.932;-9.018;2023-03-02T05:45:50;10.15;;;3.45;;
63032;SDS011;49121;38.932;-9.018;2023-03-02T05:47:50;11.18;;;3.00;;
63032;SDS011;49121;38.932;-9.018;2023-03-02T05:51:52;5.60;;;3.03;;
63032;SDS011;49121;38.932;-9.018;2023-03-02T05:53:53;5.53;;;2.45;;
63032;SDS011;49121;38.932;-9.018;2023-03-02T05:56:02;9.10;;;2.70;;
63032;SDS011;49121;38.932;-9.018;2023-03-02T05:58:04;7.43;;;3.13;;
63032;SDS011;49121;38.932;-9.018;2023-03-02T06:00:09;5.68;;;2.55;;
63032;SDS011;49121;38.932;-9.018;2023-03-02T06:02:12;10.93;;;3.20;;
63032;SDS011;49121;38.932;-9.018;2023-03-02T06:04:13;6.78;;;3.03;;
63032;SDS011;49121;38.932;-9.018;2023-03-02T06:06:14;5.15;;;2.92;;
63032;SDS011;49121;38.932;-9.018;2023-03-02T06:08:14;5.35;;;2.70;;
63032;SDS011;49121;38.932;-9.018;2023-03-02T06:10:17;6.70;;;3.17;;
63032;SDS011;49121;38.932;-9.018;2023-03-02T06:12:17;7.30;;;3.10;;
63032;SDS011;49121;38.932;-9.018;2023-03-02T06:14:18;7.82;;;2.72;;
63032;SDS011;49121;38.932;-9.018;2023-03-02T06:18:57;4.72;;;2.92;;
63032;SDS011;49121;38.932;-9.018;2023-03-02T06:20:57;5.63;;;3.17;;
63032;SDS011;49121;38.932;-9.018;2023-03-02T06:22:58;7.45;;;3.55;;
63032;SDS011;49121;38.932;-9.018;2023-03-02T06:24:59;5.28;;;3.20;;
63032;SDS011;49121;38.932;-9.018;2023-03-02T06:27:00;5.63;;;2.92;;
63032;SDS011;49121;38.932;-9.018;2023-03-02T06:29:00;6.43;;;2.97;;
63032;SDS011;49121;38.932;-9.018;2023-03-02T06:31:01;4.68;;;2.55;;
63032;SDS011;49121;38.932;-9.018;2023-03-02T06:33:01;6.32;;;2.88;;
63032;SDS011;49121;38.932;-9.018;2023-03-02T06:35:02;5.93;;;2.65;;
63032;SDS011;49121;38.932;-9.018;2023-03-02T06:37:05;10.15;;;3.75;;
63032;SDS011;49121;38.932;-9.018;2023-03-02T06:39:06;7.88;;;3.30;;
63032;SDS011;49121;38.932;-9.018;2023-03-02T06:41:15;5.07;;;3.15;;
63032;SDS011;49121;38.932;-9.018;2023-03-02T06:43:16;5.72;;;3.10;;
63032;SDS011;49121;38.932;-9.018;2023-03-02T06:45:16;6.53;;;3.13;;
63032;SDS011;49121;38.932;-9.018;2023-03-02T06:47:18;8.27;;;3.83;;
63032;SDS011;49121;38.932;-9.018;2023-03-02T06:49:19;14.60;;;4.10;;
63032;SDS011;49121;38.932;-9.018;2023-03-02T06:51:24;5.75;;;3.05;;
63032;SDS011;49121;38.932;-9.018;2023-03-02T06:53:25;7.72;;;3.30;;
63032;SDS011;49121;38.932;-9.018;2023-03-02T06:55:25;7.38;;;2.67;;
63032;SDS011;49121;38.932;-9.018;2023-03-02T06:57:27;5.13;;;2.97;;
63032;SDS011;49121;38.932;-9.018;2023-03-02T06:59:33;7.93;;;3.47;;
63032;SDS011;49121;38.932;-9.018;2023-03-02T07:01:34;8.75;;;3.45;;
63032;SDS011;49121;38.932;-9.018;2023-03-02T07:03:35;6.13;;;3.20;;
63032;SDS011;49121;38.932;-9.018;2023-03-02T07:07:36;6.17;;;2.53;;
63032;SDS011;49121;38.932;-9.018;2023-03-02T07:11:38;6.37;;;3.23;;
63032;SDS011;49121;38.932;-9.018;2023-03-02T07:13:39;11.73;;;3.38;;
63032;SDS011;49121;38.932;-9.018;2023-03-02T07:15:40;7.47;;;4.00;;
63032;SDS011;49121;38.932;-9.018;2023-03-02T07:17:41;7.88;;;3.90;;
63032;SDS011;49121;38.932;-9.018;2023-03-02T07:20:05;8.93;;;3.63;;
63032;SDS011;49121;38.932;-9.018;2023-03-02T07:22:06;10.70;;;4.78;;
63032;SDS011;49121;38.932;-9.018;2023-03-02T07:24:10;6.00;;;3.05;;
63032;SDS011;49121;38.932;-9.018;2023-03-02T07:26:10;16.27;;;4.70;;
63032;SDS011;49121;38.932;-9.018;2023-03-02T07:28:11;8.70;;;3.25;;
63032;SDS011;49121;38.932;-9.018;2023-03-02T07:30:11;14.75;;;3.45;;
63032;SDS011;49121;38.932;-9.018;2023-03-02T07:32:14;8.80;;;3.15;;
63032;SDS011;49121;38.932;-9.018;2023-03-02T07:34:14;7.95;;;2.95;;
63032;SDS011;49121;38.932;-9.018;2023-03-02T07:36:15;7.25;;;3.25;;
63032;SDS011;49121;38.932;-9.018;2023-03-02T07:38:16;7.35;;;3.85;;
63032;SDS011;49121;38.932;-9.018;2023-03-02T07:40:17;9.70;;;3.22;;
63032;SDS011;49121;38.932;-9.018;2023-03-02T07:42:17;9.27;;;4.22;;
63032;SDS011;49121;38.932;-9.018;2023-03-02T07:44:22;8.63;;;3.83;;
63032;SDS011;49121;38.932;-9.018;2023-03-02T07:46:22;10.70;;;4.15;;
63032;SDS011;49121;38.932;-9.018;2023-03-02T07:48:23;14.20;;;4.05;;
63032;SDS011;49121;38.932;-9.018;2023-03-02T07:50:23;8.68;;;4.28;;
63032;SDS011;49121;38.932;-9.018;2023-03-02T07:52:24;13.35;;;4.00;;
63032;SDS011;49121;38.932;-9.018;2023-03-02T07:54:26;9.75;;;4.53;;
63032;SDS011;49121;38.932;-9.018;2023-03-02T07:56:29;13.05;;;4.63;;
63032;SDS011;49121;38.932;-9.018;2023-03-02T07:58:30;8.57;;;4.90;;
63032;SDS011;49121;38.932;-9.018;2023-03-02T08:00:31;13.93;;;5.25;;
63032;SDS011;49121;38.932;-9.018;2023-03-02T08:02:33;8.95;;;5.03;;
63032;SDS011;49121;38.932;-9.018;2023-03-02T08:04:33;8.93;;;4.63;;
63032;SDS011;49121;38.932;-9.018;2023-03-02T08:06:36;7.22;;;4.35;;
63032;SDS011;49121;38.932;-9.018;2023-03-02T08:08:36;14.95;;;5.60;;
63032;SDS011;49121;38.932;-9.018;2023-03-02T08:10:37;16.33;;;5.97;;
63032;SDS011;49121;38.932;-9.018;2023-03-02T08:12:38;10.25;;;4.65;;
63032;SDS011;49121;38.932;-9.018;2023-03-02T08:14:39;9.60;;;5.20;;
63032;SDS011;49121;38.932;-9.018;2023-03-02T08:16:40;13.20;;;5.93;;
63032;SDS011;49121;38.932;-9.018;2023-03-02T08:20:41;10.27;;;4.57;;
63032;SDS011;49121;38.932;-9.018;2023-03-02T08:22:42;15.23;;;5.05;;
63032;SDS011;49121;38.932;-9.018;2023-03-02T08:26:43;9.33;;;5.37;;
63032;SDS011;49121;38.932;-9.018;2023-03-02T08:30:53;10.55;;;5.85;;
63032;SDS011;49121;38.932;-9.018;2023-03-02T08:32:55;10.15;;;5.60;;
63032;SDS011;49121;38.932;-9.018;2023-03-02T08:36:56;14.70;;;5.90;;
63032;SDS011;49121;38.932;-9.018;2023-03-02T08:40:58;9.57;;;4.50;;
63032;SDS011;49121;38.932;-9.018;2023-03-02T08:43:01;8.48;;;5.00;;
63032;SDS011;49121;38.932;-9.018;2023-03-02T08:47:02;19.60;;;8.27;;
63032;SDS011;49121;38.932;-9.018;2023-03-02T08:51:05;29.33;;;11.73;;
63032;SDS011;49121;38.932;-9.018;2023-03-02T08:53:13;14.15;;;8.52;;
63032;SDS011;49121;38.932;-9.018;2023-03-02T08:55:15;14.10;;;7.55;;
63032;SDS011;49121;38.932;-9.018;2023-03-02T08:57:17;11.82;;;7.20;;
63032;SDS011;49121;38.932;-9.018;2023-03-02T09:01:21;39.65;;;23.70;;
63032;SDS011;49121;38.932;-9.018;2023-03-02T09:03:23;141.15;;;68.22;;
63032;SDS011;49121;38.932;-9.018;2023-03-02T09:07:27;123.80;;;69.32;;
63032;SDS011;49121;38.932;-9.018;2023-03-02T09:09:29;75.32;;;44.10;;
63032;SDS011;49121;38.932;-9.018;2023-03-02T09:11:31;27.50;;;15.15;;
63032;SDS011;49121;38.932;-9.018;2023-03-02T09:13:32;21.05;;;12.13;;
63032;SDS011;49121;38.932;-9.018;2023-03-02T09:15:35;29.92;;;14.85;;
63032;SDS011;49121;38.932;-9.018;2023-03-02T09:17:37;20.13;;;10.75;;
63032;SDS011;49121;38.932;-9.018;2023-03-02T09:19:37;19.48;;;10.18;;
63032;SDS011;49121;38.932;-9.018;2023-03-02T09:21:40;16.48;;;8.60;;
63032;SDS011;49121;38.932;-9.018;2023-03-02T09:23:41;12.93;;;8.73;;
63032;SDS011;49121;38.932;-9.018;2023-03-02T09:25:42;24.98;;;9.52;;
63032;SDS011;49121;38.932;-9.018;2023-03-02T09:27:43;21.08;;;9.75;;
63032;SDS011;49121;38.932;-9.018;2023-03-02T09:29:44;17.50;;;9.55;;
63032;SDS011;49121;38.932;-9.018;2023-03-02T09:31:45;23.52;;;9.93;;
63032;SDS011;49121;38.932;-9.018;2023-03-02T09:33:45;23.38;;;9.70;;
63032;SDS011;49121;38.932;-9.018;2023-03-02T09:35:46;17.75;;;9.23;;
63032;SDS011;49121;38.932;-9.018;2023-03-02T09:37:47;16.02;;;9.15;;
63032;SDS011;49121;38.932;-9.018;2023-03-02T09:39:47;21.42;;;9.63;;
63032;SDS011;49121;38.932;-9.018;2023-03-02T09:51:08;27.77;;;13.32;;
63032;SDS011;49121;38.932;-9.018;2023-03-02T09:53:40;21.25;;;10.65;;
63032;SDS011;49121;38.932;-9.018;2023-03-02T09:55:53;23.42;;;9.73;;
63032;SDS011;49121;38.932;-9.018;2023-03-02T09:57:58;19.13;;;10.60;;
63032;SDS011;49121;38.932;-9.018;2023-03-02T10:00:06;21.95;;;10.13;;
63032;SDS011;49121;38.932;-9.018;2023-03-02T10:04:37;17.55;;;9.10;;
63032;SDS011;49121;38.932;-9.018;2023-03-02T10:06:44;15.00;;;9.57;;
63032;SDS011;49121;38.932;-9.018;2023-03-02T10:08:45;19.23;;;9.73;;
63032;SDS011;49121;38.932;-9.018;2023-03-02T10:13:26;16.70;;;8.57;;
63032;SDS011;49121;38.932;-9.018;2023-03-02T10:20:03;19.02;;;9.48;;
63032;SDS011;49121;38.932;-9.018;2023-03-02T10:22:11;22.58;;;8.77;;
63032;SDS011;49121;38.932;-9.018;2023-03-02T10:24:38;14.77;;;8.45;;
63032;SDS011;49121;38.932;-9.018;2023-03-02T10:26:45;19.80;;;9.00;;
63032;SDS011;49121;38.932;-9.018;2023-03-02T10:31:31;12.73;;;7.43;;
63032;SDS011;49121;38.932;-9.018;2023-03-02T10:33:52;16.10;;;7.55;;
63032;SDS011;49121;38.932;-9.018;2023-03-02T10:35:53;19.38;;;8.07;;
63032;SDS011;49121;38.932;-9.018;2023-03-02T10:37:57;10.25;;;7.53;;
63032;SDS011;49121;38.932;-9.018;2023-03-02T10:40:01;15.77;;;7.60;;
63032;SDS011;49121;38.932;-9.018;2023-03-02T10:42:02;17.50;;;8.75;;
63032;SDS011;49121;38.932;-9.018;2023-03-02T10:44:07;14.15;;;7.80;;
63032;SDS011;49121;38.932;-9.018;2023-03-02T10:46:16;15.60;;;8.63;;
63032;SDS011;49121;38.932;-9.018;2023-03-02T10:48:20;14.15;;;8.88;;
63032;SDS011;49121;38.932;-9.018;2023-03-02T10:50:27;21.42;;;8.52;;
63032;SDS011;49121;38.932;-9.018;2023-03-02T10:52:31;21.00;;;9.13;;
63032;SDS011;49121;38.932;-9.018;2023-03-02T10:54:34;16.58;;;8.57;;
63032;SDS011;49121;38.932;-9.018;2023-03-02T10:56:36;16.45;;;8.60;;
63032;SDS011;49121;38.932;-9.018;2023-03-02T10:58:42;13.05;;;7.90;;
63032;SDS011;49121;38.932;-9.018;2023-03-02T11:00:55;19.95;;;8.85;;
63032;SDS011;49121;38.932;-9.018;2023-03-02T11:03:02;14.95;;;8.73;;
63032;SDS011;49121;38.932;-9.018;2023-03-02T11:05:31;20.33;;;7.75;;
63032;SDS011;49121;38.932;-9.018;2023-03-02T11:07:50;10.85;;;7.65;;
63032;SDS011;49121;38.932;-9.018;2023-03-02T11:09:59;13.57;;;7.95;;
63032;SDS011;49121;38.932;-9.018;2023-03-02T11:12:01;14.55;;;7.28;;
63032;SDS011;49121;38.932;-9.018;2023-03-02T11:14:12;12.93;;;7.70;;
63032;SDS011;49121;38.932;-9.018;2023-03-02T11:20:36;15.07;;;6.90;;
63032;SDS011;49121;38.932;-9.018;2023-03-02T11:22:43;18.55;;;7.50;;
63032;SDS011;49121;38.932;-9.018;2023-03-02T11:24:52;15.82;;;7.13;;
63032;SDS011;49121;38.932;-9.018;2023-03-02T11:27:15;21.98;;;7.10;;
63032;SDS011;49121;38.932;-9.018;2023-03-02T11:29:30;11.10;;;6.45;;
63032;SDS011;49121;38.932;-9.018;2023-03-02T11:34:01;12.65;;;6.82;;
63032;SDS011;49121;38.932;-9.018;2023-03-02T11:36:16;10.85;;;6.47;;
63032;SDS011;49121;38.932;-9.018;2023-03-02T11:38:22;12.82;;;5.90;;
63032;SDS011;49121;38.932;-9.018;2023-03-02T11:42:55;12.15;;;4.70;;
63032;SDS011;49121;38.932;-9.018;2023-03-02T11:44:59;8.65;;;3.90;;
63032;SDS011;49121;38.932;-9.018;2023-03-02T11:47:06;10.85;;;4.50;;
63032;SDS011;49121;38.932;-9.018;2023-03-02T11:49:13;12.45;;;4.03;;
63032;SDS011;49121;38.932;-9.018;2023-03-02T11:51:22;8.13;;;3.63;;
63032;SDS011;49121;38.932;-9.018;2023-03-02T11:53:44;9.23;;;3.97;;
63032;SDS011;49121;38.932;-9.018;2023-03-02T11:55:50;13.15;;;4.00;;
63032;SDS011;49121;38.932;-9.018;2023-03-02T11:57:56;8.93;;;4.50;;
63032;SDS011;49121;38.932;-9.018;2023-03-02T12:00:13;8.13;;;3.92;;
63032;SDS011;49121;38.932;-9.018;2023-03-02T12:02:35;9.20;;;2.58;;
63032;SDS011;49121;38.932;-9.018;2023-03-02T12:04:41;10.70;;;2.90;;
63032;SDS011;49121;38.932;-9.018;2023-03-02T12:08:45;6.78;;;3.28;;
63032;SDS011;49121;38.932;-9.018;2023-03-02T12:10:58;7.15;;;2.72;;
63032;SDS011;49121;38.932;-9.018;2023-03-02T12:13:29;7.40;;;3.47;;
63032;SDS011;49121;38.932;-9.018;2023-03-02T12:17:46;9.18;;;4.00;;
63032;SDS011;49121;38.932;-9.018;2023-03-02T12:19:49;7.78;;;3.78;;
63032;SDS011;49121;38.932;-9.018;2023-03-02T12:22:07;12.07;;;4.05;;
63032;SDS011;49121;38.932;-9.018;2023-03-02T12:26:43;9.63;;;4.38;;
63032;SDS011;49121;38.932;-9.018;2023-03-02T12:31:02;10.85;;;4.55;;
63032;SDS011;49121;38.932;-9.018;2023-03-02T12:35:10;16.08;;;5.15;;
63032;SDS011;49121;38.932;-9.018;2023-03-02T12:39:22;12.25;;;5.05;;
63032;SDS011;49121;38.932;-9.018;2023-03-02T12:44:15;15.10;;;6.05;;
63032;SDS011;49121;38.932;-9.018;2023-03-02T12:46:45;9.57;;;4.60;;
63032;SDS011;49121;38.932;-9.018;2023-03-02T12:50:58;16.55;;;5.35;;
63032;SDS011;49121;38.932;-9.018;2023-03-02T12:53:22;8.30;;;5.05;;
63032;SDS011;49121;38.932;-9.018;2023-03-02T12:55:28;10.98;;;5.25;;
63032;SDS011;49121;38.932;-9.018;2023-03-02T12:57:37;13.38;;;6.07;;
63032;SDS011;49121;38.932;-9.018;2023-03-02T13:00:01;17.08;;;6.70;;
63032;SDS011;49121;38.932;-9.018;2023-03-02T13:02:21;16.60;;;6.55;;
63032;SDS011;49121;38.932;-9.018;2023-03-02T13:04:24;10.30;;;5.80;;
63032;SDS011;49121;38.932;-9.018;2023-03-02T13:06:27;15.02;;;5.07;;
63032;SDS011;49121;38.932;-9.018;2023-03-02T13:08:31;15.20;;;4.57;;
63032;SDS011;49121;38.932;-9.018;2023-03-02T13:10:34;6.43;;;3.80;;
63032;SDS011;49121;38.932;-9.018;2023-03-02T13:12:43;10.10;;;4.70;;
63032;SDS011;49121;38.932;-9.018;2023-03-02T13:14:46;8.60;;;4.65;;
63032;SDS011;49121;38.932;-9.018;2023-03-02T13:16:53;13.55;;;5.07;;
63032;SDS011;49121;38.932;-9.018;2023-03-02T13:19:00;15.07;;;5.60;;
63032;SDS011;49121;38.932;-9.018;2023-03-02T13:21:03;8.82;;;4.55;;
63032;SDS011;49121;38.932;-9.018;2023-03-02T13:23:05;8.60;;;4.30;;
63032;SDS011;49121;38.932;-9.018;2023-03-02T13:27:28;9.73;;;4.22;;
63032;SDS011;49121;38.932;-9.018;2023-03-02T13:29:34;11.60;;;3.88;;
63032;SDS011;49121;38.932;-9.018;2023-03-02T13:31:39;9.68;;;4.35;;
63032;SDS011;49121;38.932;-9.018;2023-03-02T13:33:45;7.18;;;3.45;;
63032;SDS011;49121;38.932;-9.018;2023-03-02T13:35:49;8.98;;;4.85;;
63032;SDS011;49121;38.932;-9.018;2023-03-02T13:40:07;11.90;;;4.72;;
63032;SDS011;49121;38.932;-9.018;2023-03-02T13:42:27;16.98;;;6.90;;
63032;SDS011;49121;38.932;-9.018;2023-03-02T13:44:33;12.85;;;4.85;;
63032;SDS011;49121;38.932;-9.018;2023-03-02T13:46:34;9.85;;;4.65;;
63032;SDS011;49121;38.932;-9.018;2023-03-02T13:50:36;10.02;;;4.18;;
63032;SDS011;49121;38.932;-9.018;2023-03-02T13:52:37;3.83;;;2.35;;
63032;SDS011;49121;38.932;-9.018;2023-03-02T13:54:40;9.45;;;2.80;;
63032;SDS011;49121;38.932;-9.018;2023-03-02T13:56:43;4.03;;;2.20;;
63032;SDS011;49121;38.932;-9.018;2023-03-02T14:00:46;6.60;;;3.63;;
63032;SDS011;49121;38.932;-9.018;2023-03-02T14:02:48;8.60;;;4.28;;
63032;SDS011;49121;38.932;-9.018;2023-03-02T14:06:50;1.77;;;1.23;;
63032;SDS011;49121;38.932;-9.018;2023-03-02T14:08:52;7.38;;;2.13;;